createdAt,value
2022-11-24T00:01:18.173Z,2.50
2022-11-24T00:03:52.849Z,3.00
2022-11-24T00:06:20.756Z,3.25
2022-11-24T00:08:48.618Z,2.65
2022-11-24T00:11:18.478Z,3.10
2022-11-24T00:13:47.118Z,2.70
2022-11-24T00:16:16.664Z,2.55
2022-11-24T00:18:46.013Z,3.08
2022-11-24T00:21:15.965Z,3.10
2022-11-24T00:23:44.083Z,3.00
2022-11-24T00:26:14.333Z,2.80
2022-11-24T00:28:42.819Z,2.80
2022-11-24T00:31:17.915Z,2.40
2022-11-24T00:33:46.473Z,2.20
2022-11-24T00:36:16.661Z,2.93
2022-11-24T00:38:45.349Z,2.30
2022-11-24T00:41:13.681Z,2.17
2022-11-24T00:43:41.573Z,1.88
2022-11-24T00:46:09.855Z,1.92
2022-11-24T00:48:37.793Z,1.87
2022-11-24T00:51:07.867Z,1.80
2022-11-24T00:53:37.401Z,1.73
2022-11-24T00:56:05.943Z,1.70
2022-11-24T00:58:34.235Z,1.70
2022-11-24T01:01:07.345Z,1.60
2022-11-24T01:03:36.119Z,1.13
2022-11-24T01:06:05.467Z,2.83
2022-11-24T01:08:33.306Z,1.67
2022-11-24T01:11:12.808Z,1.30
2022-11-24T01:13:41.873Z,1.20
2022-11-24T01:16:15.818Z,1.30
2022-11-24T01:18:43.885Z,1.15
2022-11-24T01:21:11.890Z,1.30
2022-11-24T01:23:42.596Z,1.58
2022-11-24T01:26:14.263Z,1.47
2022-11-24T01:28:47.089Z,1.50
2022-11-24T01:31:16.672Z,1.90
2022-11-24T01:33:44.745Z,1.50
2022-11-24T01:36:13.177Z,1.63
2022-11-24T01:38:41.038Z,2.00
2022-11-24T01:41:13.677Z,1.73
2022-11-24T01:43:42.406Z,2.08
2022-11-24T01:46:18.013Z,1.83
2022-11-24T01:48:49.816Z,2.00
2022-11-24T01:51:23.371Z,2.47
2022-11-24T01:53:57.930Z,3.03
2022-11-24T01:56:28.660Z,2.00
2022-11-24T01:59:00.099Z,1.83
2022-11-24T02:01:29.268Z,1.80
2022-11-24T02:03:57.767Z,2.30
2022-11-24T02:06:30.036Z,1.92
2022-11-24T02:09:01.027Z,1.48
2022-11-24T02:11:35.862Z,2.30
2022-11-24T02:14:06.123Z,2.17
2022-11-24T02:16:36.465Z,1.60
2022-11-24T02:19:10.731Z,2.33
2022-11-24T02:21:38.845Z,1.67
2022-11-24T02:24:13.879Z,2.20
2022-11-24T02:26:44.675Z,2.00
2022-11-24T02:29:14.079Z,1.90
2022-11-24T02:31:45.854Z,1.95
2022-11-24T02:34:13.681Z,1.80
2022-11-24T02:36:41.649Z,1.98
2022-11-24T02:39:12.360Z,1.90
2022-11-24T02:41:44.398Z,2.00
2022-11-24T02:44:14.722Z,1.90
2022-11-24T02:46:42.651Z,1.77
2022-11-24T02:49:10.526Z,1.55
2022-11-24T02:51:38.425Z,1.88
2022-11-24T02:54:06.330Z,1.83
2022-11-24T02:56:34.174Z,1.65
2022-11-24T02:59:03.394Z,1.95
2022-11-24T03:01:31.312Z,1.63
2022-11-24T03:03:59.110Z,1.45
2022-11-24T03:06:26.916Z,1.70
2022-11-24T03:08:54.710Z,1.80
2022-11-24T03:11:22.578Z,1.48
2022-11-24T03:13:50.959Z,1.65
2022-11-24T03:16:20.197Z,1.55
2022-11-24T03:18:48.572Z,1.50
2022-11-24T03:21:16.390Z,1.40
2022-11-24T03:23:44.284Z,1.65
2022-11-24T03:26:14.142Z,1.45
2022-11-24T03:28:42.070Z,1.30
2022-11-24T03:31:10.814Z,1.93
2022-11-24T03:33:40.652Z,1.55
2022-11-24T03:36:09.657Z,1.20
2022-11-24T03:38:37.726Z,1.60
2022-11-24T03:41:05.889Z,1.48
2022-11-24T03:43:35.929Z,1.60
2022-11-24T03:46:07.138Z,1.50
2022-11-24T03:48:35.076Z,1.17
2022-11-24T03:51:04.521Z,1.20
2022-11-24T03:53:33.509Z,1.02
2022-11-24T03:56:02.443Z,1.47
2022-11-24T03:58:31.000Z,1.42
2022-11-24T04:00:59.166Z,1.50
2022-11-24T04:03:27.577Z,1.83
2022-11-24T04:05:55.406Z,1.20
2022-11-24T04:08:24.744Z,1.40
2022-11-24T04:10:54.247Z,1.10
2022-11-24T04:13:24.268Z,1.00
2022-11-24T04:15:52.696Z,1.00
2022-11-24T04:18:20.989Z,1.15
2022-11-24T04:20:50.595Z,1.83
2022-11-24T04:23:18.689Z,1.85
2022-11-24T04:25:47.762Z,1.77
2022-11-24T04:28:15.497Z,1.30
2022-11-24T04:30:44.705Z,1.80
2022-11-24T04:33:13.484Z,2.10
2022-11-24T04:35:41.199Z,1.90
2022-11-24T04:38:09.246Z,1.90
2022-11-24T04:40:36.941Z,2.20
2022-11-24T04:43:06.178Z,2.40
2022-11-24T04:45:33.885Z,2.30
2022-11-24T04:48:01.667Z,2.33
2022-11-24T04:50:29.619Z,2.47
2022-11-24T04:52:57.388Z,2.42
2022-11-24T04:55:25.072Z,2.00
2022-11-24T04:57:52.744Z,2.27
2022-11-24T05:00:21.994Z,1.83
2022-11-24T05:02:49.752Z,1.67
2022-11-24T05:05:17.435Z,1.58
2022-11-24T05:07:45.342Z,1.65
2022-11-24T05:10:30.636Z,2.00
2022-11-24T05:12:59.425Z,1.65
2022-11-24T05:15:29.099Z,1.20
2022-11-24T05:17:57.185Z,1.30
2022-11-24T05:20:25.529Z,1.30
2022-11-24T05:22:53.289Z,1.13
2022-11-24T05:25:21.088Z,1.08
2022-11-24T05:27:49.079Z,1.20
2022-11-24T05:30:16.970Z,1.42
2022-11-24T05:32:46.104Z,1.58
2022-11-24T05:35:14.375Z,1.50
2022-11-24T05:37:42.319Z,1.48
2022-11-24T05:40:10.684Z,1.85
2022-11-24T05:42:46.657Z,1.05
2022-11-24T05:45:17.417Z,1.60
2022-11-24T05:47:47.329Z,1.00
2022-11-24T05:50:18.291Z,1.25
2022-11-24T05:52:46.466Z,0.85
2022-11-24T05:55:15.707Z,1.10
2022-11-24T05:57:43.648Z,1.08
2022-11-24T06:00:12.296Z,1.30
2022-11-24T06:02:43.124Z,1.40
2022-11-24T06:05:12.348Z,1.45
2022-11-24T06:07:40.188Z,1.20
2022-11-24T06:10:08.360Z,1.50
2022-11-24T06:12:36.931Z,3.20
2022-11-24T06:15:05.190Z,2.13
2022-11-24T06:17:32.941Z,3.88
2022-11-24T06:20:00.715Z,1.70
2022-11-24T06:22:29.753Z,4.70
2022-11-24T06:24:57.568Z,2.10
2022-11-24T06:27:25.759Z,2.10
2022-11-24T06:29:53.569Z,1.13
2022-11-24T06:32:21.798Z,0.95
2022-11-24T06:34:49.555Z,1.63
2022-11-24T06:37:17.282Z,2.00
2022-11-24T06:39:46.466Z,1.27
2022-11-24T06:42:18.248Z,1.45
2022-11-24T06:44:47.002Z,0.90
2022-11-24T06:47:15.062Z,0.85
2022-11-24T06:49:42.836Z,0.80
2022-11-24T06:52:10.571Z,0.98
2022-11-24T06:54:38.337Z,0.82
2022-11-24T06:57:07.526Z,0.90
2022-11-24T06:59:35.476Z,1.40
2022-11-24T07:02:03.503Z,0.70
2022-11-24T07:04:31.609Z,0.77
2022-11-24T07:06:59.394Z,1.23
2022-11-24T07:09:27.047Z,1.42
2022-11-24T07:11:56.127Z,1.55
2022-11-24T07:14:25.449Z,1.87
2022-11-24T07:16:53.485Z,1.52
2022-11-24T07:19:24.837Z,1.33
2022-11-24T07:21:52.994Z,1.08
2022-11-24T07:24:20.677Z,2.22
2022-11-24T07:26:48.340Z,1.93
2022-11-24T07:29:16.422Z,1.38
2022-11-24T07:31:46.188Z,2.00
2022-11-24T07:34:14.617Z,1.30
2022-11-24T07:36:42.666Z,1.83
2022-11-24T07:39:10.463Z,2.17
2022-11-24T07:41:38.248Z,1.63
2022-11-24T07:44:06.339Z,1.20
2022-11-24T07:46:34.214Z,1.05
2022-11-24T07:49:03.647Z,1.70
2022-11-24T07:51:31.361Z,5.97
2022-11-24T07:53:59.180Z,3.85
2022-11-24T07:56:27.018Z,1.70
2022-11-24T07:58:55.073Z,2.40
2022-11-24T08:01:22.761Z,1.50
2022-11-24T08:03:50.630Z,1.20
2022-11-24T08:06:31.785Z,1.60
2022-11-24T08:09:06.275Z,1.83
2022-11-24T08:11:34.555Z,1.80
2022-11-24T08:14:02.368Z,1.75
2022-11-24T08:16:30.122Z,2.17
2022-11-24T08:18:57.913Z,1.30
2022-11-24T08:21:27.417Z,1.67
2022-11-24T08:23:56.564Z,1.25
2022-11-24T08:26:25.108Z,1.50
2022-11-24T08:28:56.226Z,1.20
2022-11-24T08:31:27.167Z,1.10
2022-11-24T08:33:56.393Z,1.45
2022-11-24T08:36:24.125Z,1.88
2022-11-24T08:38:57.325Z,1.65
2022-11-24T08:41:26.236Z,1.73
2022-11-24T08:43:54.007Z,1.70
2022-11-24T08:46:22.217Z,2.13
2022-11-24T08:48:50.819Z,2.22
2022-11-24T08:51:21.397Z,2.15
2022-11-24T08:53:49.470Z,2.10
2022-11-24T08:56:18.636Z,2.35
2022-11-24T08:58:46.583Z,1.80
2022-11-24T09:01:17.058Z,2.25
2022-11-24T09:03:50.426Z,1.55
2022-11-24T09:06:19.309Z,1.73
2022-11-24T09:08:46.982Z,1.60
2022-11-24T09:11:17.114Z,1.52
2022-11-24T09:13:46.962Z,1.40
2022-11-24T09:16:16.129Z,2.30
2022-11-24T09:18:44.242Z,1.70
2022-11-24T09:21:13.725Z,2.22
2022-11-24T09:23:41.939Z,1.70
2022-11-24T09:26:11.421Z,2.10
2022-11-24T09:28:39.114Z,1.80
2022-11-24T09:31:10.207Z,1.70
2022-11-24T09:33:38.776Z,2.97
2022-11-24T09:36:07.628Z,1.80
2022-11-24T09:38:35.727Z,2.05
2022-11-24T09:41:27.986Z,2.25
2022-11-24T09:44:05.127Z,1.93
2022-11-24T09:46:41.077Z,2.22
2022-11-24T09:49:14.765Z,2.05
2022-11-24T09:51:47.204Z,1.90
2022-11-24T09:54:19.522Z,2.17
2022-11-24T09:56:48.623Z,2.70
2022-11-24T09:59:18.912Z,2.50
2022-11-24T10:01:50.019Z,2.95
2022-11-24T10:04:20.892Z,2.58
2022-11-24T10:06:54.575Z,2.40
2022-11-24T10:09:50.595Z,2.77
2022-11-24T10:12:31.764Z,2.28
2022-11-24T10:15:12.823Z,3.92
2022-11-24T10:17:57.604Z,5.75
2022-11-24T10:20:31.674Z,2.88
2022-11-24T10:23:16.017Z,2.83
2022-11-24T10:25:51.090Z,2.55
2022-11-24T10:28:19.090Z,2.97
2022-11-24T10:30:47.650Z,3.60
2022-11-24T10:33:19.597Z,3.55
2022-11-24T10:35:52.692Z,3.30
2022-11-24T10:38:31.978Z,3.78
2022-11-24T10:41:04.147Z,2.92
2022-11-24T10:43:32.025Z,2.40
2022-11-24T10:46:09.413Z,2.70
2022-11-24T10:48:44.958Z,2.70
2022-11-24T10:51:42.449Z,2.70
2022-11-24T10:54:17.067Z,3.03
2022-11-24T10:56:46.057Z,3.13
2022-11-24T10:59:32.233Z,3.22
2022-11-24T11:02:00.511Z,2.60
2022-11-24T11:04:31.206Z,2.90
2022-11-24T11:07:09.697Z,3.10
2022-11-24T11:09:37.667Z,2.28
2022-11-24T11:12:42.158Z,1.95
2022-11-24T11:15:22.846Z,2.53
2022-11-24T11:17:52.438Z,2.47
2022-11-24T11:20:27.934Z,2.50
2022-11-24T11:22:57.660Z,2.53
2022-11-24T11:25:34.984Z,2.38
2022-11-24T11:28:22.936Z,2.63
2022-11-24T11:34:06.178Z,2.30
2022-11-24T11:36:41.979Z,2.05
2022-11-24T11:39:21.641Z,2.50
2022-11-24T11:41:52.806Z,2.00
2022-11-24T11:44:30.886Z,1.90
2022-11-24T11:47:00.319Z,2.25
2022-11-24T11:49:28.136Z,2.22
2022-11-24T11:52:17.175Z,3.22
2022-11-24T11:55:14.423Z,2.13
2022-11-24T11:57:49.506Z,2.10
2022-11-24T12:00:20.215Z,2.42
2022-11-24T12:03:00.447Z,2.33
2022-11-24T12:05:32.540Z,2.40
2022-11-24T12:08:19.189Z,1.93
2022-11-24T12:10:54.627Z,2.25
2022-11-24T12:13:40.491Z,2.15
2022-11-24T12:16:17.762Z,2.22
2022-11-24T12:18:58.447Z,4.18
2022-11-24T12:21:33.677Z,2.30
2022-11-24T12:24:13.036Z,2.85
2022-11-24T12:26:46.767Z,3.65
2022-11-24T12:29:35.050Z,4.38
2022-11-24T12:32:12.634Z,3.83
2022-11-24T12:34:53.489Z,4.57
2022-11-24T12:37:36.178Z,3.05
2022-11-24T12:40:14.988Z,4.55
2022-11-24T12:42:53.544Z,3.63
2022-11-24T12:45:29.589Z,2.72
2022-11-24T12:48:14.364Z,3.10
2022-11-24T12:50:44.783Z,2.35
2022-11-24T12:53:15.920Z,1.95
2022-11-24T12:55:45.851Z,1.70
2022-11-24T12:58:26.920Z,2.05
2022-11-24T13:01:05.415Z,2.33
2022-11-24T13:03:41.930Z,2.03
2022-11-24T13:06:15.949Z,2.67
2022-11-24T13:08:44.201Z,2.60
2022-11-24T13:11:38.362Z,1.55
2022-11-24T13:14:08.297Z,2.07
2022-11-24T13:16:44.405Z,2.17
2022-11-24T13:19:26.050Z,3.08
2022-11-24T13:22:19.553Z,2.20
2022-11-24T13:24:52.283Z,3.63
2022-11-24T13:27:28.665Z,2.70
2022-11-24T13:29:56.497Z,2.10
2022-11-24T13:33:01.208Z,2.30
2022-11-24T13:35:29.502Z,2.47
2022-11-24T13:37:57.643Z,2.75
2022-11-24T13:40:45.935Z,2.93
2022-11-24T13:43:26.597Z,2.13
2022-11-24T13:45:54.870Z,2.28
2022-11-24T13:48:59.631Z,2.13
2022-11-24T13:51:27.600Z,2.22
2022-11-24T13:53:57.737Z,2.07
2022-11-24T13:56:31.405Z,2.38
2022-11-24T13:59:16.348Z,2.63
2022-11-24T14:01:47.025Z,2.25
2022-11-24T14:04:36.001Z,2.38
2022-11-24T14:09:54.582Z,2.20
2022-11-24T14:12:24.532Z,2.50
2022-11-24T14:14:55.524Z,2.38
2022-11-24T14:17:24.731Z,2.08
2022-11-24T14:19:53.894Z,2.27
2022-11-24T14:22:24.301Z,2.42
2022-11-24T14:24:57.338Z,2.35
2022-11-24T14:27:30.492Z,2.45
2022-11-24T14:30:01.062Z,1.90
2022-11-24T14:32:29.356Z,2.20
2022-11-24T14:34:57.485Z,2.10
2022-11-24T14:37:25.377Z,2.20
2022-11-24T14:39:53.252Z,3.67
2022-11-24T14:42:24.148Z,2.53
2022-11-24T14:44:55.620Z,2.23
2022-11-24T14:47:31.269Z,2.33
2022-11-24T14:50:08.929Z,2.60
2022-11-24T14:52:37.132Z,2.38
2022-11-24T14:55:21.987Z,2.35
2022-11-24T14:57:50.502Z,2.63
2022-11-24T15:00:21.171Z,2.70
2022-11-24T15:02:53.700Z,2.55
2022-11-24T15:05:23.358Z,3.13
2022-11-24T15:07:53.503Z,2.30
2022-11-24T15:10:34.095Z,2.37
2022-11-24T15:13:04.201Z,2.33
2022-11-24T15:15:34.938Z,2.50
2022-11-24T15:18:06.272Z,2.60
2022-11-24T15:20:36.922Z,2.45
2022-11-24T15:23:22.520Z,2.73
2022-11-24T15:25:50.904Z,2.10
2022-11-24T15:28:19.578Z,2.72
2022-11-24T15:30:47.361Z,2.83
2022-11-24T15:33:18.341Z,2.42
2022-11-24T15:35:46.643Z,2.23
2022-11-24T15:38:15.287Z,2.63
2022-11-24T15:40:44.925Z,2.20
2022-11-24T15:43:20.897Z,2.30
2022-11-24T15:45:48.623Z,2.85
2022-11-24T15:48:18.300Z,2.90
2022-11-24T15:50:46.708Z,2.38
2022-11-24T15:53:21.030Z,2.70
2022-11-24T15:55:48.926Z,2.28
2022-11-24T15:58:17.245Z,2.42
2022-11-24T16:00:45.927Z,2.53
2022-11-24T16:03:44.964Z,2.83
2022-11-24T16:06:02.974Z,2.53
2022-11-24T16:08:30.793Z,2.58
2022-11-24T16:10:58.513Z,2.53
2022-11-24T16:13:26.335Z,2.60
2022-11-24T16:15:54.245Z,2.25
2022-11-24T16:18:21.942Z,2.47
2022-11-24T16:20:50.018Z,2.10
2022-11-24T16:23:19.277Z,2.95
2022-11-24T16:25:46.962Z,4.33
2022-11-24T16:28:14.698Z,3.10
2022-11-24T16:30:42.650Z,2.50
2022-11-24T16:33:10.866Z,2.85
2022-11-24T16:35:38.743Z,2.80
2022-11-24T16:38:06.511Z,2.87
2022-11-24T16:40:35.674Z,2.47
2022-11-24T16:43:03.435Z,2.67
2022-11-24T16:45:31.210Z,3.45
2022-11-24T16:47:59.315Z,2.65
2022-11-24T16:50:27.094Z,2.37
2022-11-24T16:52:55.052Z,2.47
2022-11-24T16:55:22.822Z,2.38
2022-11-24T16:57:52.030Z,3.22
2022-11-24T17:00:20.241Z,3.38
2022-11-24T17:02:48.082Z,3.53
2022-11-24T17:05:16.423Z,2.40
2022-11-24T17:07:44.267Z,2.42
2022-11-24T17:10:12.249Z,2.10
2022-11-24T17:12:40.927Z,2.03
2022-11-24T17:15:31.970Z,2.27
2022-11-24T17:18:23.448Z,2.92
2022-11-24T17:20:46.699Z,1.80
2022-11-24T17:23:14.445Z,2.42
2022-11-24T17:25:42.233Z,2.92
2022-11-24T17:28:10.117Z,2.10
2022-11-24T17:30:39.238Z,2.33
2022-11-24T17:33:06.954Z,2.20
2022-11-24T17:35:34.757Z,1.88
2022-11-24T17:38:02.672Z,2.83
2022-11-24T17:40:30.743Z,2.40
2022-11-24T17:43:00.238Z,2.72
2022-11-24T17:45:28.840Z,2.72
2022-11-24T17:47:59.439Z,3.35
2022-11-24T17:50:27.727Z,4.07
2022-11-24T17:52:55.494Z,2.70
2022-11-24T17:55:23.537Z,2.35
2022-11-24T17:57:51.545Z,1.92
2022-11-24T18:00:19.810Z,2.30
2022-11-24T18:02:47.616Z,2.17
2022-11-24T18:05:16.997Z,2.10
2022-11-24T18:07:44.791Z,1.85
2022-11-24T18:10:12.737Z,2.13
2022-11-24T18:12:40.470Z,2.38
2022-11-24T18:15:09.167Z,2.67
2022-11-24T18:17:36.863Z,2.23
2022-11-24T18:20:04.996Z,1.80
2022-11-24T18:23:04.044Z,2.25
2022-11-24T18:25:23.052Z,2.10
2022-11-24T18:27:50.917Z,1.92
2022-11-24T18:30:18.984Z,1.83
2022-11-24T18:32:46.837Z,1.83
2022-11-24T18:35:14.481Z,2.13
2022-11-24T18:37:44.479Z,1.90
2022-11-24T18:40:12.569Z,2.50
2022-11-24T18:42:40.259Z,1.60
2022-11-24T18:45:09.125Z,2.20
2022-11-24T18:47:36.880Z,2.00
2022-11-24T18:50:05.313Z,2.40
2022-11-24T18:52:33.076Z,1.98
2022-11-24T18:55:03.958Z,1.73
2022-11-24T18:57:31.986Z,2.15
2022-11-24T18:59:59.742Z,1.98
2022-11-24T19:02:27.658Z,1.98
2022-11-24T19:04:55.457Z,2.33
2022-11-24T19:07:23.253Z,2.93
2022-11-24T19:09:51.081Z,1.60
2022-11-24T19:12:20.178Z,2.00
2022-11-24T19:14:47.894Z,2.10
2022-11-24T19:17:15.642Z,1.80
2022-11-24T19:19:43.347Z,1.73
2022-11-24T19:22:11.083Z,2.63
2022-11-24T19:24:39.525Z,2.38
2022-11-24T19:27:07.333Z,2.00
2022-11-24T19:29:41.745Z,2.20
2022-11-24T19:32:11.102Z,2.10
2022-11-24T19:34:39.455Z,2.20
2022-11-24T19:37:07.534Z,2.25
2022-11-24T19:39:35.362Z,2.17
2022-11-24T19:42:04.682Z,2.20
2022-11-24T19:44:32.600Z,2.03
2022-11-24T19:47:01.887Z,2.33
2022-11-24T19:49:29.647Z,2.10
2022-11-24T19:51:57.463Z,1.90
2022-11-24T19:54:25.162Z,2.13
2022-11-24T19:56:55.413Z,2.13
2022-11-24T19:59:26.315Z,2.53
2022-11-24T20:01:55.040Z,2.08
2022-11-24T20:04:24.533Z,2.25
2022-11-24T20:06:52.482Z,1.98
2022-11-24T20:09:20.173Z,2.33
2022-11-24T20:11:48.634Z,2.58
2022-11-24T20:14:18.970Z,2.20
2022-11-24T20:16:47.846Z,1.92
2022-11-24T20:19:17.469Z,2.70
2022-11-24T20:21:49.193Z,1.80
2022-11-24T20:24:19.307Z,2.10
2022-11-24T20:26:49.033Z,1.98
2022-11-24T20:29:17.456Z,1.90
2022-11-24T20:31:47.290Z,1.80
2022-11-24T20:34:15.824Z,2.00
2022-11-24T20:36:46.545Z,2.10
2022-11-24T20:39:18.737Z,1.98
2022-11-24T20:41:46.532Z,2.28
2022-11-24T20:44:17.584Z,2.15
2022-11-24T20:46:46.573Z,2.20
2022-11-24T20:49:17.721Z,1.80
2022-11-24T20:51:48.011Z,1.90
2022-11-24T20:54:17.227Z,2.60
2022-11-24T20:56:46.415Z,1.77
2022-11-24T20:59:15.779Z,2.37
2022-11-24T21:01:45.391Z,2.30
2022-11-24T21:04:18.151Z,2.03
2022-11-24T21:06:47.701Z,2.10
2022-11-24T21:09:15.664Z,1.90
2022-11-24T21:11:43.791Z,2.00
2022-11-24T21:14:11.529Z,3.28
2022-11-24T21:16:41.170Z,3.30
2022-11-24T21:19:12.220Z,2.03
2022-11-24T21:21:42.370Z,2.50
2022-11-24T21:24:14.853Z,2.10
2022-11-24T21:26:44.352Z,1.98
2022-11-24T21:29:14.083Z,2.03
2022-11-24T21:31:42.534Z,2.13
2022-11-24T21:34:10.601Z,1.83
2022-11-24T21:36:40.768Z,1.83
2022-11-24T21:39:12.201Z,1.95
2022-11-24T21:41:41.962Z,2.40
2022-11-24T21:44:11.340Z,2.20
2022-11-24T21:46:44.661Z,2.42
2022-11-24T21:49:15.949Z,2.07
2022-11-24T21:51:43.681Z,2.17
2022-11-24T21:54:11.414Z,2.50
2022-11-24T21:56:39.171Z,2.30
2022-11-24T21:59:08.577Z,2.05
2022-11-24T22:01:36.609Z,2.10
2022-11-24T22:04:04.461Z,2.03
2022-11-24T22:06:33.241Z,2.17
2022-11-24T22:09:01.254Z,2.03
2022-11-24T22:11:29.019Z,2.45
2022-11-24T22:13:56.722Z,2.33
2022-11-24T22:16:26.594Z,1.90
2022-11-24T22:18:55.239Z,2.08
2022-11-24T22:21:29.739Z,2.35
2022-11-24T22:23:57.571Z,2.13
2022-11-24T22:26:25.505Z,2.10
2022-11-24T22:28:54.577Z,1.90
2022-11-24T22:31:24.235Z,2.10
2022-11-24T22:33:54.452Z,2.10
2022-11-24T22:36:24.002Z,2.25
2022-11-24T22:38:54.658Z,2.30
2022-11-24T22:41:22.590Z,2.00
2022-11-24T22:43:50.514Z,2.75
2022-11-24T22:46:20.654Z,1.95
2022-11-24T22:48:49.434Z,2.50
2022-11-24T22:51:20.114Z,2.67
2022-11-24T22:53:48.737Z,3.53
2022-11-24T22:56:17.255Z,2.70
2022-11-24T22:58:45.181Z,2.67
2022-11-24T23:01:15.279Z,2.00
2022-11-24T23:03:43.121Z,2.40
2022-11-24T23:06:13.320Z,2.50
2022-11-24T23:08:43.326Z,2.45
2022-11-24T23:11:12.652Z,2.58
2022-11-24T23:13:40.754Z,2.60
2022-11-24T23:16:10.614Z,2.30
2022-11-24T23:18:38.829Z,2.72
2022-11-24T23:21:08.535Z,2.40
2022-11-24T23:23:36.410Z,2.05
2022-11-24T23:26:07.956Z,2.25
2022-11-24T23:28:35.866Z,2.43
2022-11-24T23:31:05.811Z,2.08
2022-11-24T23:33:33.796Z,2.75
2022-11-24T23:36:03.093Z,2.50
2022-11-24T23:38:32.828Z,2.53
2022-11-24T23:41:03.995Z,2.87
2022-11-24T23:43:34.305Z,2.00
2022-11-24T23:46:03.357Z,3.17
2022-11-24T23:48:31.437Z,2.30
2022-11-24T23:51:05.055Z,2.35
2022-11-24T23:53:33.319Z,2.13
2022-11-24T23:56:01.134Z,2.28
2022-11-24T23:58:29.194Z,2.70
